sensor_id;sensor_type;location;lat;lon;timestamp;P1;durP1;ratioP1;P2;durP2;ratioP2
7835;SDS011;3963;42.658;23.298;2023-03-01T00:00:59;7.33;;;4.80;;
7835;SDS011;3963;42.658;23.298;2023-03-01T00:03:28;6.30;;;4.33;;
7835;SDS011;3963;42.658;23.298;2023-03-01T00:05:54;8.87;;;5.20;;
7835;SDS011;3963;42.658;23.298;2023-03-01T00:08:21;5.90;;;4.60;;
7835;SDS011;3963;42.658;23.298;2023-03-01T00:10:48;7.30;;;4.33;;
7835;SDS011;3963;42.658;23.298;2023-03-01T00:13:15;6.07;;;4.40;;
7835;SDS011;3963;42.658;23.298;2023-03-01T00:15:42;7.10;;;4.87;;
7835;SDS011;3963;42.658;23.298;2023-03-01T00:18:10;5.77;;;4.37;;
7835;SDS011;3963;42.658;23.298;2023-03-01T00:20:36;5.93;;;4.47;;
7835;SDS011;3963;42.658;23.298;2023-03-01T00:23:03;5.30;;;3.93;;
7835;SDS011;3963;42.658;23.298;2023-03-01T00:25:30;5.87;;;4.70;;
7835;SDS011;3963;42.658;23.298;2023-03-01T00:27:57;5.70;;;4.57;;
7835;SDS011;3963;42.658;23.298;2023-03-01T00:30:24;6.43;;;4.67;;
7835;SDS011;3963;42.658;23.298;2023-03-01T00:32:51;4.73;;;4.23;;
7835;SDS011;3963;42.658;23.298;2023-03-01T00:35:19;6.67;;;4.40;;
7835;SDS011;3963;42.658;23.298;2023-03-01T00:37:48;5.60;;;4.07;;
7835;SDS011;3963;42.658;23.298;2023-03-01T00:40:18;5.50;;;4.27;;
7835;SDS011;3963;42.658;23.298;2023-03-01T00:42:45;5.37;;;4.20;;
7835;SDS011;3963;42.658;23.298;2023-03-01T00:45:11;5.30;;;3.50;;
7835;SDS011;3963;42.658;23.298;2023-03-01T00:47:38;4.23;;;3.50;;
7835;SDS011;3963;42.658;23.298;2023-03-01T00:50:05;5.07;;;3.93;;
7835;SDS011;3963;42.658;23.298;2023-03-01T00:52:34;5.37;;;4.10;;
7835;SDS011;3963;42.658;23.298;2023-03-01T00:55:01;5.00;;;4.13;;
7835;SDS011;3963;42.658;23.298;2023-03-01T00:57:28;7.10;;;4.23;;
7835;SDS011;3963;42.658;23.298;2023-03-01T00:59:54;4.53;;;3.57;;
7835;SDS011;3963;42.658;23.298;2023-03-01T01:02:21;4.40;;;3.70;;
7835;SDS011;3963;42.658;23.298;2023-03-01T01:04:48;4.47;;;3.53;;
7835;SDS011;3963;42.658;23.298;2023-03-01T01:07:15;5.10;;;3.77;;
7835;SDS011;3963;42.658;23.298;2023-03-01T01:09:46;7.10;;;3.73;;
7835;SDS011;3963;42.658;23.298;2023-03-01T01:12:13;3.83;;;3.20;;
7835;SDS011;3963;42.658;23.298;2023-03-01T01:14:40;4.87;;;3.33;;
7835;SDS011;3963;42.658;23.298;2023-03-01T01:17:06;4.23;;;3.13;;
7835;SDS011;3963;42.658;23.298;2023-03-01T01:19:33;4.07;;;3.10;;
7835;SDS011;3963;42.658;23.298;2023-03-01T01:22:00;3.90;;;3.50;;
7835;SDS011;3963;42.658;23.298;2023-03-01T01:24:27;4.40;;;2.93;;
7835;SDS011;3963;42.658;23.298;2023-03-01T01:26:55;4.20;;;3.10;;
7835;SDS011;3963;42.658;23.298;2023-03-01T01:29:22;4.67;;;3.40;;
7835;SDS011;3963;42.658;23.298;2023-03-01T01:31:48;3.23;;;2.63;;
7835;SDS011;3963;42.658;23.298;2023-03-01T01:34:16;3.77;;;3.10;;
7835;SDS011;3963;42.658;23.298;2023-03-01T01:36:47;4.07;;;2.70;;
7835;SDS011;3963;42.658;23.298;2023-03-01T01:39:14;3.43;;;2.70;;
7835;SDS011;3963;42.658;23.298;2023-03-01T01:41:42;3.33;;;2.67;;
7835;SDS011;3963;42.658;23.298;2023-03-01T01:44:12;3.40;;;2.73;;
7835;SDS011;3963;42.658;23.298;2023-03-01T01:46:44;4.10;;;2.70;;
7835;SDS011;3963;42.658;23.298;2023-03-01T01:49:17;4.97;;;2.80;;
7835;SDS011;3963;42.658;23.298;2023-03-01T01:51:49;3.10;;;2.47;;
7835;SDS011;3963;42.658;23.298;2023-03-01T01:54:24;3.17;;;2.70;;
7835;SDS011;3963;42.658;23.298;2023-03-01T01:56:57;2.80;;;2.50;;
7835;SDS011;3963;42.658;23.298;2023-03-01T01:59:29;2.83;;;2.50;;
7835;SDS011;3963;42.658;23.298;2023-03-01T02:01:59;2.50;;;2.27;;
7835;SDS011;3963;42.658;23.298;2023-03-01T02:04:28;3.30;;;2.70;;
7835;SDS011;3963;42.658;23.298;2023-03-01T02:06:58;2.90;;;2.53;;
7835;SDS011;3963;42.658;23.298;2023-03-01T02:09:27;2.63;;;2.23;;
7835;SDS011;3963;42.658;23.298;2023-03-01T02:11:55;3.17;;;2.50;;
7835;SDS011;3963;42.658;23.298;2023-03-01T02:14:23;3.27;;;2.50;;
7835;SDS011;3963;42.658;23.298;2023-03-01T02:16:52;2.83;;;2.53;;
7835;SDS011;3963;42.658;23.298;2023-03-01T02:19:23;3.70;;;2.97;;
7835;SDS011;3963;42.658;23.298;2023-03-01T02:21:59;3.23;;;2.50;;
7835;SDS011;3963;42.658;23.298;2023-03-01T02:24:35;3.67;;;2.60;;
7835;SDS011;3963;42.658;23.298;2023-03-01T02:27:10;2.40;;;2.20;;
7835;SDS011;3963;42.658;23.298;2023-03-01T02:29:38;2.93;;;2.63;;
7835;SDS011;3963;42.658;23.298;2023-03-01T02:32:05;3.07;;;2.77;;
7835;SDS011;3963;42.658;23.298;2023-03-01T02:34:32;2.57;;;2.37;;
7835;SDS011;3963;42.658;23.298;2023-03-01T02:37:00;2.73;;;2.53;;
7835;SDS011;3963;42.658;23.298;2023-03-01T02:39:30;3.20;;;2.57;;
7835;SDS011;3963;42.658;23.298;2023-03-01T02:42:00;2.43;;;1.90;;
7835;SDS011;3963;42.658;23.298;2023-03-01T02:44:28;3.17;;;2.27;;
7835;SDS011;3963;42.658;23.298;2023-03-01T02:46:57;3.60;;;3.00;;
7835;SDS011;3963;42.658;23.298;2023-03-01T02:49:29;2.73;;;2.40;;
7835;SDS011;3963;42.658;23.298;2023-03-01T02:54:48;3.03;;;2.77;;
7835;SDS011;3963;42.658;23.298;2023-03-01T02:57:20;4.10;;;2.87;;
7835;SDS011;3963;42.658;23.298;2023-03-01T02:59:49;3.37;;;2.93;;
7835;SDS011;3963;42.658;23.298;2023-03-01T03:02:20;3.70;;;3.10;;
7835;SDS011;3963;42.658;23.298;2023-03-01T03:05:01;4.00;;;3.60;;
7835;SDS011;3963;42.658;23.298;2023-03-01T03:07:31;4.13;;;3.60;;
7835;SDS011;3963;42.658;23.298;2023-03-01T03:09:59;4.67;;;3.33;;
7835;SDS011;3963;42.658;23.298;2023-03-01T03:12:27;3.47;;;2.77;;
7835;SDS011;3963;42.658;23.298;2023-03-01T03:14:53;5.30;;;3.77;;
7835;SDS011;3963;42.658;23.298;2023-03-01T03:17:22;4.40;;;4.00;;
7835;SDS011;3963;42.658;23.298;2023-03-01T03:19:49;5.80;;;4.90;;
7835;SDS011;3963;42.658;23.298;2023-03-01T03:22:16;5.40;;;3.80;;
7835;SDS011;3963;42.658;23.298;2023-03-01T03:24:43;5.40;;;4.37;;
7835;SDS011;3963;42.658;23.298;2023-03-01T03:27:09;4.90;;;4.00;;
7835;SDS011;3963;42.658;23.298;2023-03-01T03:29:36;6.03;;;4.53;;
7835;SDS011;3963;42.658;23.298;2023-03-01T03:32:03;5.83;;;4.90;;
7835;SDS011;3963;42.658;23.298;2023-03-01T03:34:32;6.27;;;4.50;;
7835;SDS011;3963;42.658;23.298;2023-03-01T03:36:58;7.17;;;5.37;;
7835;SDS011;3963;42.658;23.298;2023-03-01T03:39:25;7.43;;;5.50;;
7835;SDS011;3963;42.658;23.298;2023-03-01T03:42:00;8.30;;;5.50;;
7835;SDS011;3963;42.658;23.298;2023-03-01T03:44:27;7.73;;;4.97;;
7835;SDS011;3963;42.658;23.298;2023-03-01T03:47:11;7.87;;;5.73;;
7835;SDS011;3963;42.658;23.298;2023-03-01T03:49:40;6.90;;;5.57;;
7835;SDS011;3963;42.658;23.298;2023-03-01T03:52:07;8.00;;;5.63;;
7835;SDS011;3963;42.658;23.298;2023-03-01T03:54:38;8.20;;;5.80;;
7835;SDS011;3963;42.658;23.298;2023-03-01T03:57:05;8.30;;;4.53;;
7835;SDS011;3963;42.658;23.298;2023-03-01T03:59:32;8.70;;;4.97;;
7835;SDS011;3963;42.658;23.298;2023-03-01T04:01:59;6.20;;;4.50;;
7835;SDS011;3963;42.658;23.298;2023-03-01T04:04:48;5.90;;;4.43;;
7835;SDS011;3963;42.658;23.298;2023-03-01T04:07:15;5.63;;;3.80;;
7835;SDS011;3963;42.658;23.298;2023-03-01T04:09:42;5.93;;;4.00;;
7835;SDS011;3963;42.658;23.298;2023-03-01T04:12:09;5.90;;;3.77;;
7835;SDS011;3963;42.658;23.298;2023-03-01T04:14:36;5.17;;;3.77;;
7835;SDS011;3963;42.658;23.298;2023-03-01T04:17:04;6.03;;;3.70;;
7835;SDS011;3963;42.658;23.298;2023-03-01T04:19:32;6.20;;;4.10;;
7835;SDS011;3963;42.658;23.298;2023-03-01T04:22:02;5.20;;;4.00;;
7835;SDS011;3963;42.658;23.298;2023-03-01T04:24:34;4.90;;;4.27;;
7835;SDS011;3963;42.658;23.298;2023-03-01T04:27:01;5.30;;;3.83;;
7835;SDS011;3963;42.658;23.298;2023-03-01T04:29:28;4.63;;;3.40;;
7835;SDS011;3963;42.658;23.298;2023-03-01T04:31:54;6.10;;;3.73;;
7835;SDS011;3963;42.658;23.298;2023-03-01T04:34:21;6.73;;;3.77;;
7835;SDS011;3963;42.658;23.298;2023-03-01T04:36:48;4.93;;;3.87;;
7835;SDS011;3963;42.658;23.298;2023-03-01T04:39:16;5.60;;;4.30;;
7835;SDS011;3963;42.658;23.298;2023-03-01T04:41:43;6.87;;;4.23;;
7835;SDS011;3963;42.658;23.298;2023-03-01T04:44:09;5.33;;;4.27;;
7835;SDS011;3963;42.658;23.298;2023-03-01T04:46:36;4.53;;;3.37;;
7835;SDS011;3963;42.658;23.298;2023-03-01T04:49:03;6.40;;;4.37;;
7835;SDS011;3963;42.658;23.298;2023-03-01T04:51:30;6.77;;;4.70;;
7835;SDS011;3963;42.658;23.298;2023-03-01T04:53:58;5.63;;;4.17;;
7835;SDS011;3963;42.658;23.298;2023-03-01T04:56:26;8.93;;;5.83;;
7835;SDS011;3963;42.658;23.298;2023-03-01T04:58:53;5.97;;;4.33;;
7835;SDS011;3963;42.658;23.298;2023-03-01T05:01:20;7.43;;;4.33;;
7835;SDS011;3963;42.658;23.298;2023-03-01T05:03:48;5.87;;;4.20;;
7835;SDS011;3963;42.658;23.298;2023-03-01T05:06:17;8.73;;;5.03;;
7835;SDS011;3963;42.658;23.298;2023-03-01T05:08:45;9.17;;;4.57;;
7835;SDS011;3963;42.658;23.298;2023-03-01T05:11:12;7.50;;;4.40;;
7835;SDS011;3963;42.658;23.298;2023-03-01T05:13:41;4.37;;;3.13;;
7835;SDS011;3963;42.658;23.298;2023-03-01T05:16:08;4.40;;;3.63;;
7835;SDS011;3963;42.658;23.298;2023-03-01T05:18:36;7.33;;;4.40;;
7835;SDS011;3963;42.658;23.298;2023-03-01T05:21:03;9.43;;;5.20;;
7835;SDS011;3963;42.658;23.298;2023-03-01T05:23:32;4.70;;;3.37;;
7835;SDS011;3963;42.658;23.298;2023-03-01T05:26:00;7.83;;;4.73;;
7835;SDS011;3963;42.658;23.298;2023-03-01T05:28:28;6.17;;;4.70;;
7835;SDS011;3963;42.658;23.298;2023-03-01T05:30:57;7.10;;;4.50;;
7835;SDS011;3963;42.658;23.298;2023-03-01T05:33:25;4.00;;;2.97;;
7835;SDS011;3963;42.658;23.298;2023-03-01T05:35:52;6.30;;;4.53;;
7835;SDS011;3963;42.658;23.298;2023-03-01T05:38:20;6.63;;;4.27;;
7835;SDS011;3963;42.658;23.298;2023-03-01T05:40:48;4.87;;;3.80;;
7835;SDS011;3963;42.658;23.298;2023-03-01T05:43:15;4.87;;;3.50;;
7835;SDS011;3963;42.658;23.298;2023-03-01T05:45:43;6.07;;;4.13;;
7835;SDS011;3963;42.658;23.298;2023-03-01T05:48:11;5.57;;;3.77;;
7835;SDS011;3963;42.658;23.298;2023-03-01T05:50:39;4.63;;;3.33;;
7835;SDS011;3963;42.658;23.298;2023-03-01T05:53:09;6.10;;;3.27;;
7835;SDS011;3963;42.658;23.298;2023-03-01T05:55:38;4.73;;;3.47;;
7835;SDS011;3963;42.658;23.298;2023-03-01T05:58:06;5.63;;;3.40;;
7835;SDS011;3963;42.658;23.298;2023-03-01T06:00:35;5.17;;;3.70;;
7835;SDS011;3963;42.658;23.298;2023-03-01T06:03:02;3.57;;;3.10;;
7835;SDS011;3963;42.658;23.298;2023-03-01T06:05:30;5.10;;;3.90;;
7835;SDS011;3963;42.658;23.298;2023-03-01T06:07:58;4.43;;;3.57;;
7835;SDS011;3963;42.658;23.298;2023-03-01T06:10:26;4.13;;;3.20;;
7835;SDS011;3963;42.658;23.298;2023-03-01T06:12:53;3.17;;;2.73;;
7835;SDS011;3963;42.658;23.298;2023-03-01T06:15:20;5.53;;;3.20;;
7835;SDS011;3963;42.658;23.298;2023-03-01T06:17:48;3.93;;;2.67;;
7835;SDS011;3963;42.658;23.298;2023-03-01T06:20:15;4.37;;;3.10;;
7835;SDS011;3963;42.658;23.298;2023-03-01T06:22:45;5.50;;;3.20;;
7835;SDS011;3963;42.658;23.298;2023-03-01T06:25:13;5.53;;;3.40;;
7835;SDS011;3963;42.658;23.298;2023-03-01T06:27:42;5.20;;;3.00;;
7835;SDS011;3963;42.658;23.298;2023-03-01T06:30:10;5.37;;;2.83;;
7835;SDS011;3963;42.658;23.298;2023-03-01T06:32:39;4.37;;;3.20;;
7835;SDS011;3963;42.658;23.298;2023-03-01T06:35:07;4.37;;;3.40;;
7835;SDS011;3963;42.658;23.298;2023-03-01T06:37:34;4.47;;;3.30;;
7835;SDS011;3963;42.658;23.298;2023-03-01T06:40:03;4.90;;;3.60;;
7835;SDS011;3963;42.658;23.298;2023-03-01T06:42:33;4.20;;;3.10;;
7835;SDS011;3963;42.658;23.298;2023-03-01T06:45:00;3.67;;;3.27;;
7835;SDS011;3963;42.658;23.298;2023-03-01T06:47:27;5.10;;;3.17;;
7835;SDS011;3963;42.658;23.298;2023-03-01T06:49:53;4.87;;;3.73;;
7835;SDS011;3963;42.658;23.298;2023-03-01T06:52:20;5.90;;;3.30;;
7835;SDS011;3963;42.658;23.298;2023-03-01T06:54:47;4.23;;;3.43;;
7835;SDS011;3963;42.658;23.298;2023-03-01T06:57:15;7.13;;;3.53;;
7835;SDS011;3963;42.658;23.298;2023-03-01T06:59:42;5.47;;;3.53;;
7835;SDS011;3963;42.658;23.298;2023-03-01T07:02:09;5.17;;;3.33;;
7835;SDS011;3963;42.658;23.298;2023-03-01T07:04:36;6.23;;;3.53;;
7835;SDS011;3963;42.658;23.298;2023-03-01T07:07:03;4.73;;;2.93;;
7835;SDS011;3963;42.658;23.298;2023-03-01T07:09:30;3.73;;;2.87;;
7835;SDS011;3963;42.658;23.298;2023-03-01T07:11:57;4.07;;;2.73;;
7835;SDS011;3963;42.658;23.298;2023-03-01T07:14:25;4.20;;;3.00;;
7835;SDS011;3963;42.658;23.298;2023-03-01T07:16:52;3.53;;;3.03;;
7835;SDS011;3963;42.658;23.298;2023-03-01T07:19:19;5.80;;;3.47;;
7835;SDS011;3963;42.658;23.298;2023-03-01T07:21:46;5.63;;;3.10;;
7835;SDS011;3963;42.658;23.298;2023-03-01T07:24:13;6.13;;;3.30;;
7835;SDS011;3963;42.658;23.298;2023-03-01T07:26:40;3.63;;;2.50;;
7835;SDS011;3963;42.658;23.298;2023-03-01T07:29:07;3.87;;;2.93;;
7835;SDS011;3963;42.658;23.298;2023-03-01T07:31:37;5.13;;;3.60;;
7835;SDS011;3963;42.658;23.298;2023-03-01T07:34:04;4.90;;;3.00;;
7835;SDS011;3963;42.658;23.298;2023-03-01T07:36:31;3.67;;;2.97;;
7835;SDS011;3963;42.658;23.298;2023-03-01T07:38:58;4.47;;;2.50;;
7835;SDS011;3963;42.658;23.298;2023-03-01T07:41:27;8.57;;;3.73;;
7835;SDS011;3963;42.658;23.298;2023-03-01T07:43:54;6.40;;;4.30;;
7835;SDS011;3963;42.658;23.298;2023-03-01T07:46:21;4.67;;;3.43;;
7835;SDS011;3963;42.658;23.298;2023-03-01T07:48:49;5.03;;;3.47;;
7835;SDS011;3963;42.658;23.298;2023-03-01T07:51:16;4.87;;;3.10;;
7835;SDS011;3963;42.658;23.298;2023-03-01T07:53:45;8.93;;;3.50;;
7835;SDS011;3963;42.658;23.298;2023-03-01T07:56:13;4.57;;;3.50;;
7835;SDS011;3963;42.658;23.298;2023-03-01T07:58:43;4.07;;;3.13;;
7835;SDS011;3963;42.658;23.298;2023-03-01T08:01:11;4.77;;;3.60;;
7835;SDS011;3963;42.658;23.298;2023-03-01T08:03:39;4.93;;;3.33;;
7835;SDS011;3963;42.658;23.298;2023-03-01T08:06:08;5.60;;;3.93;;
7835;SDS011;3963;42.658;23.298;2023-03-01T08:08:36;6.20;;;3.50;;
7835;SDS011;3963;42.658;23.298;2023-03-01T08:11:04;4.37;;;3.17;;
7835;SDS011;3963;42.658;23.298;2023-03-01T08:13:32;3.93;;;2.90;;
7835;SDS011;3963;42.658;23.298;2023-03-01T08:16:02;4.53;;;2.53;;
7835;SDS011;3963;42.658;23.298;2023-03-01T08:18:30;5.20;;;3.40;;
7835;SDS011;3963;42.658;23.298;2023-03-01T08:21:00;6.83;;;3.73;;
7835;SDS011;3963;42.658;23.298;2023-03-01T08:23:29;6.57;;;3.73;;
7835;SDS011;3963;42.658;23.298;2023-03-01T08:26:02;5.97;;;4.90;;
7835;SDS011;3963;42.658;23.298;2023-03-01T08:28:31;6.70;;;5.67;;
7835;SDS011;3963;42.658;23.298;2023-03-01T08:30:58;8.10;;;6.60;;
7835;SDS011;3963;42.658;23.298;2023-03-01T08:33:24;6.20;;;5.60;;
7835;SDS011;3963;42.658;23.298;2023-03-01T08:35:51;7.23;;;4.80;;
7835;SDS011;3963;42.658;23.298;2023-03-01T08:38:18;6.57;;;3.20;;
7835;SDS011;3963;42.658;23.298;2023-03-01T08:40:46;6.07;;;4.27;;
7835;SDS011;3963;42.658;23.298;2023-03-01T08:43:13;5.97;;;4.63;;
7835;SDS011;3963;42.658;23.298;2023-03-01T08:45:40;4.33;;;3.60;;
7835;SDS011;3963;42.658;23.298;2023-03-01T08:48:06;4.90;;;3.30;;
7835;SDS011;3963;42.658;23.298;2023-03-01T08:50:33;4.20;;;3.40;;
7835;SDS011;3963;42.658;23.298;2023-03-01T08:53:00;4.93;;;3.80;;
7835;SDS011;3963;42.658;23.298;2023-03-01T08:55:26;4.10;;;2.93;;
7835;SDS011;3963;42.658;23.298;2023-03-01T08:57:55;4.00;;;2.57;;
7835;SDS011;3963;42.658;23.298;2023-03-01T09:00:24;5.00;;;3.23;;
7835;SDS011;3963;42.658;23.298;2023-03-01T09:02:51;5.27;;;3.40;;
7835;SDS011;3963;42.658;23.298;2023-03-01T09:05:17;4.63;;;2.97;;
7835;SDS011;3963;42.658;23.298;2023-03-01T09:07:44;4.60;;;2.97;;
7835;SDS011;3963;42.658;23.298;2023-03-01T09:10:11;4.17;;;3.20;;
7835;SDS011;3963;42.658;23.298;2023-03-01T09:12:38;9.90;;;3.90;;
7835;SDS011;3963;42.658;23.298;2023-03-01T09:15:06;5.97;;;4.23;;
7835;SDS011;3963;42.658;23.298;2023-03-01T09:17:34;4.57;;;4.00;;
7835;SDS011;3963;42.658;23.298;2023-03-01T09:20:01;5.73;;;3.70;;
7835;SDS011;3963;42.658;23.298;2023-03-01T09:22:30;4.60;;;3.70;;
7835;SDS011;3963;42.658;23.298;2023-03-01T09:25:00;7.07;;;3.63;;
7835;SDS011;3963;42.658;23.298;2023-03-01T09:27:26;6.03;;;3.73;;
7835;SDS011;3963;42.658;23.298;2023-03-01T09:29:53;5.47;;;3.90;;
7835;SDS011;3963;42.658;23.298;2023-03-01T09:32:22;5.67;;;3.60;;
7835;SDS011;3963;42.658;23.298;2023-03-01T09:34:49;7.83;;;3.17;;
7835;SDS011;3963;42.658;23.298;2023-03-01T09:37:29;5.37;;;3.37;;
7835;SDS011;3963;42.658;23.298;2023-03-01T09:39:57;6.63;;;3.27;;
7835;SDS011;3963;42.658;23.298;2023-03-01T09:42:24;5.90;;;3.40;;
7835;SDS011;3963;42.658;23.298;2023-03-01T09:44:52;4.23;;;3.13;;
7835;SDS011;3963;42.658;23.298;2023-03-01T09:47:25;2.83;;;2.37;;
7835;SDS011;3963;42.658;23.298;2023-03-01T09:49:58;3.67;;;2.60;;
7835;SDS011;3963;42.658;23.298;2023-03-01T09:52:33;2.73;;;2.37;;
7835;SDS011;3963;42.658;23.298;2023-03-01T09:55:07;3.00;;;2.70;;
7835;SDS011;3963;42.658;23.298;2023-03-01T09:57:38;4.30;;;2.47;;
7835;SDS011;3963;42.658;23.298;2023-03-01T10:03:07;5.60;;;3.03;;
7835;SDS011;3963;42.658;23.298;2023-03-01T10:05:50;5.07;;;2.97;;
7835;SDS011;3963;42.658;23.298;2023-03-01T10:08:27;3.80;;;2.93;;
7835;SDS011;3963;42.658;23.298;2023-03-01T10:11:01;3.00;;;2.70;;
7835;SDS011;3963;42.658;23.298;2023-03-01T10:13:37;7.63;;;2.67;;
7835;SDS011;3963;42.658;23.298;2023-03-01T10:16:14;5.77;;;2.97;;
7835;SDS011;3963;42.658;23.298;2023-03-01T10:18:47;3.07;;;2.47;;
7835;SDS011;3963;42.658;23.298;2023-03-01T10:21:21;5.97;;;2.80;;
7835;SDS011;3963;42.658;23.298;2023-03-01T10:23:49;5.87;;;3.07;;
7835;SDS011;3963;42.658;23.298;2023-03-01T10:26:25;3.93;;;2.67;;
7835;SDS011;3963;42.658;23.298;2023-03-01T10:29:05;4.33;;;3.10;;
7835;SDS011;3963;42.658;23.298;2023-03-01T10:31:37;6.40;;;3.23;;
7835;SDS011;3963;42.658;23.298;2023-03-01T10:34:10;6.33;;;3.07;;
7835;SDS011;3963;42.658;23.298;2023-03-01T10:36:39;5.13;;;2.90;;
7835;SDS011;3963;42.658;23.298;2023-03-01T10:39:11;4.93;;;3.13;;
7835;SDS011;3963;42.658;23.298;2023-03-01T10:41:45;5.17;;;3.20;;
7835;SDS011;3963;42.658;23.298;2023-03-01T10:44:34;4.23;;;3.10;;
7835;SDS011;3963;42.658;23.298;2023-03-01T10:47:11;4.33;;;2.80;;
7835;SDS011;3963;42.658;23.298;2023-03-01T10:49:51;5.33;;;3.67;;
7835;SDS011;3963;42.658;23.298;2023-03-01T10:52:20;5.87;;;3.00;;
7835;SDS011;3963;42.658;23.298;2023-03-01T10:54:52;6.53;;;3.00;;
7835;SDS011;3963;42.658;23.298;2023-03-01T10:57:28;5.63;;;3.40;;
7835;SDS011;3963;42.658;23.298;2023-03-01T11:02:48;5.00;;;3.60;;
7835;SDS011;3963;42.658;23.298;2023-03-01T11:05:20;4.17;;;3.20;;
7835;SDS011;3963;42.658;23.298;2023-03-01T11:07:50;6.40;;;3.50;;
7835;SDS011;3963;42.658;23.298;2023-03-01T11:10:18;4.27;;;3.27;;
7835;SDS011;3963;42.658;23.298;2023-03-01T11:12:47;4.53;;;3.50;;
7835;SDS011;3963;42.658;23.298;2023-03-01T11:15:21;6.43;;;4.07;;
7835;SDS011;3963;42.658;23.298;2023-03-01T11:17:51;4.13;;;3.10;;
7835;SDS011;3963;42.658;23.298;2023-03-01T11:20:23;4.23;;;3.33;;
7835;SDS011;3963;42.658;23.298;2023-03-01T11:22:53;6.00;;;3.63;;
7835;SDS011;3963;42.658;23.298;2023-03-01T11:25:23;5.83;;;3.70;;
7835;SDS011;3963;42.658;23.298;2023-03-01T11:27:53;5.53;;;3.50;;
7835;SDS011;3963;42.658;23.298;2023-03-01T11:30:23;6.47;;;3.97;;
7835;SDS011;3963;42.658;23.298;2023-03-01T11:33:01;5.17;;;3.57;;
7835;SDS011;3963;42.658;23.298;2023-03-01T11:35:37;6.47;;;4.10;;
7835;SDS011;3963;42.658;23.298;2023-03-01T11:38:12;9.77;;;5.30;;
7835;SDS011;3963;42.658;23.298;2023-03-01T11:40:47;5.07;;;3.37;;
7835;SDS011;3963;42.658;23.298;2023-03-01T11:43:19;4.73;;;3.67;;
7835;SDS011;3963;42.658;23.298;2023-03-01T11:49:10;5.13;;;4.00;;
7835;SDS011;3963;42.658;23.298;2023-03-01T11:51:51;4.20;;;3.70;;
7835;SDS011;3963;42.658;23.298;2023-03-01T11:54:27;5.17;;;4.10;;
7835;SDS011;3963;42.658;23.298;2023-03-01T11:57:04;4.33;;;3.87;;
7835;SDS011;3963;42.658;23.298;2023-03-01T11:59:45;10.20;;;5.40;;
7835;SDS011;3963;42.658;23.298;2023-03-01T12:02:32;8.80;;;4.93;;
7835;SDS011;3963;42.658;23.298;2023-03-01T12:05:35;6.47;;;4.70;;
7835;SDS011;3963;42.658;23.298;2023-03-01T12:08:31;8.20;;;4.83;;
7835;SDS011;3963;42.658;23.298;2023-03-01T12:11:03;5.60;;;4.27;;
7835;SDS011;3963;42.658;23.298;2023-03-01T12:14:05;4.87;;;4.10;;
7835;SDS011;3963;42.658;23.298;2023-03-01T12:16:55;4.37;;;3.70;;
7835;SDS011;3963;42.658;23.298;2023-03-01T12:19:48;10.23;;;4.60;;
7835;SDS011;3963;42.658;23.298;2023-03-01T12:22:32;5.57;;;4.60;;
7835;SDS011;3963;42.658;23.298;2023-03-01T12:25:12;7.43;;;5.97;;
7835;SDS011;3963;42.658;23.298;2023-03-01T12:27:58;8.13;;;5.13;;
7835;SDS011;3963;42.658;23.298;2023-03-01T12:30:37;7.40;;;4.23;;
7835;SDS011;3963;42.658;23.298;2023-03-01T12:33:20;7.80;;;5.03;;
7835;SDS011;3963;42.658;23.298;2023-03-01T12:38:47;7.00;;;4.90;;
7835;SDS011;3963;42.658;23.298;2023-03-01T12:41:31;6.40;;;3.83;;
7835;SDS011;3963;42.658;23.298;2023-03-01T12:44:11;5.13;;;4.03;;
7835;SDS011;3963;42.658;23.298;2023-03-01T12:46:57;5.77;;;4.13;;
7835;SDS011;3963;42.658;23.298;2023-03-01T12:49:37;5.57;;;3.43;;
7835;SDS011;3963;42.658;23.298;2023-03-01T12:52:10;5.37;;;3.80;;
7835;SDS011;3963;42.658;23.298;2023-03-01T12:54:41;4.13;;;2.90;;
7835;SDS011;3963;42.658;23.298;2023-03-01T12:57:12;6.97;;;4.00;;
7835;SDS011;3963;42.658;23.298;2023-03-01T12:59:46;5.17;;;3.50;;
7835;SDS011;3963;42.658;23.298;2023-03-01T13:02:29;7.00;;;5.33;;
7835;SDS011;3963;42.658;23.298;2023-03-01T13:05:10;6.17;;;4.67;;
7835;SDS011;3963;42.658;23.298;2023-03-01T13:07:52;6.47;;;3.83;;
7835;SDS011;3963;42.658;23.298;2023-03-01T13:10:26;4.27;;;3.60;;
7835;SDS011;3963;42.658;23.298;2023-03-01T13:13:10;4.70;;;3.60;;
7835;SDS011;3963;42.658;23.298;2023-03-01T13:15:40;4.87;;;3.30;;
7835;SDS011;3963;42.658;23.298;2023-03-01T13:21:04;3.73;;;3.23;;
7835;SDS011;3963;42.658;23.298;2023-03-01T13:23:32;5.37;;;3.73;;
7835;SDS011;3963;42.658;23.298;2023-03-01T13:26:11;6.33;;;4.10;;
7835;SDS011;3963;42.658;23.298;2023-03-01T13:28:45;5.33;;;3.70;;
7835;SDS011;3963;42.658;23.298;2023-03-01T13:34:39;4.00;;;3.40;;
7835;SDS011;3963;42.658;23.298;2023-03-01T13:37:22;5.27;;;3.50;;
7835;SDS011;3963;42.658;23.298;2023-03-01T13:39:57;6.00;;;4.43;;
7835;SDS011;3963;42.658;23.298;2023-03-01T13:42:36;4.80;;;3.67;;
7835;SDS011;3963;42.658;23.298;2023-03-01T13:45:15;6.87;;;4.17;;
7835;SDS011;3963;42.658;23.298;2023-03-01T13:47:45;8.30;;;4.00;;
7835;SDS011;3963;42.658;23.298;2023-03-01T13:50:18;7.07;;;4.10;;
7835;SDS011;3963;42.658;23.298;2023-03-01T13:52:48;5.33;;;4.17;;
7835;SDS011;3963;42.658;23.298;2023-03-01T13:55:19;5.50;;;3.80;;
7835;SDS011;3963;42.658;23.298;2023-03-01T13:57:50;5.87;;;4.30;;
7835;SDS011;3963;42.658;23.298;2023-03-01T14:00:26;5.50;;;4.60;;
7835;SDS011;3963;42.658;23.298;2023-03-01T14:03:05;8.23;;;5.13;;
7835;SDS011;3963;42.658;23.298;2023-03-01T14:05:37;6.97;;;4.67;;
7835;SDS011;3963;42.658;23.298;2023-03-01T14:08:05;6.93;;;4.83;;
7835;SDS011;3963;42.658;23.298;2023-03-01T14:10:48;7.83;;;4.97;;
7835;SDS011;3963;42.658;23.298;2023-03-01T14:13:31;7.93;;;3.80;;
7835;SDS011;3963;42.658;23.298;2023-03-01T14:16:17;8.57;;;4.00;;
7835;SDS011;3963;42.658;23.298;2023-03-01T14:18:53;5.73;;;3.87;;
7835;SDS011;3963;42.658;23.298;2023-03-01T14:21:27;7.40;;;4.73;;
7835;SDS011;3963;42.658;23.298;2023-03-01T14:23:55;6.60;;;4.80;;
7835;SDS011;3963;42.658;23.298;2023-03-01T14:26:23;6.97;;;5.23;;
7835;SDS011;3963;42.658;23.298;2023-03-01T14:28:50;5.37;;;4.23;;
7835;SDS011;3963;42.658;23.298;2023-03-01T14:31:34;6.77;;;4.40;;
7835;SDS011;3963;42.658;23.298;2023-03-01T14:34:03;6.40;;;4.63;;
7835;SDS011;3963;42.658;23.298;2023-03-01T14:36:31;7.27;;;4.63;;
7835;SDS011;3963;42.658;23.298;2023-03-01T14:38:58;7.13;;;4.27;;
7835;SDS011;3963;42.658;23.298;2023-03-01T14:41:30;7.57;;;4.57;;
7835;SDS011;3963;42.658;23.298;2023-03-01T14:44:00;6.00;;;4.27;;
7835;SDS011;3963;42.658;23.298;2023-03-01T14:46:30;9.17;;;4.60;;
7835;SDS011;3963;42.658;23.298;2023-03-01T14:49:02;7.20;;;4.77;;
7835;SDS011;3963;42.658;23.298;2023-03-01T14:51:30;6.53;;;4.90;;
7835;SDS011;3963;42.658;23.298;2023-03-01T14:54:02;8.90;;;5.33;;
7835;SDS011;3963;42.658;23.298;2023-03-01T14:56:37;10.90;;;5.27;;
7835;SDS011;3963;42.658;23.298;2023-03-01T14:59:10;8.20;;;4.60;;
7835;SDS011;3963;42.658;23.298;2023-03-01T15:01:38;9.67;;;5.73;;
7835;SDS011;3963;42.658;23.298;2023-03-01T15:04:06;10.17;;;5.60;;
7835;SDS011;3963;42.658;23.298;2023-03-01T15:06:38;7.13;;;4.80;;
7835;SDS011;3963;42.658;23.298;2023-03-01T15:09:05;7.17;;;3.80;;
7835;SDS011;3963;42.658;23.298;2023-03-01T15:11:34;8.30;;;3.40;;
7835;SDS011;3963;42.658;23.298;2023-03-01T15:14:02;7.30;;;3.60;;
7835;SDS011;3963;42.658;23.298;2023-03-01T15:16:54;7.70;;;3.90;;
7835;SDS011;3963;42.658;23.298;2023-03-01T15:19:21;15.77;;;5.63;;
7835;SDS011;3963;42.658;23.298;2023-03-01T15:21:52;6.57;;;4.33;;
7835;SDS011;3963;42.658;23.298;2023-03-01T15:24:20;4.93;;;3.97;;
7835;SDS011;3963;42.658;23.298;2023-03-01T15:26:50;7.30;;;4.50;;
7835;SDS011;3963;42.658;23.298;2023-03-01T15:29:21;11.43;;;4.83;;
7835;SDS011;3963;42.658;23.298;2023-03-01T15:31:57;7.33;;;4.40;;
7835;SDS011;3963;42.658;23.298;2023-03-01T15:34:26;7.60;;;4.83;;
7835;SDS011;3963;42.658;23.298;2023-03-01T15:36:54;10.87;;;5.40;;
7835;SDS011;3963;42.658;23.298;2023-03-01T15:39:30;7.73;;;4.77;;
7835;SDS011;3963;42.658;23.298;2023-03-01T15:42:02;6.47;;;4.37;;